Villa El Recreo, Puerto Rico
Current Conditions -  °F | °C
As of 11:53 AM on Saturday 22 Nov 2014 (Local Time) from TJNR Reporting Station
Overcast Overcast  
Wind Chill: 81°   Ceiling: 3300
Heat Index: 86°   Visibility: 10mi
Dew Point: 74°   Wind: 5mph
Humidity: 79%   Direction: 90°E
Pressure: 30.05"   Gusts: NA
Location:  18.0547°N, 65.8738°W
Report Text: TJNR 221553Z AUTO 09004KT 10SM BKN033 BKN041 OVC100 27/23 A3005 RMK AO2 RAE02B38E50 SLP176 P0000 T02720233 $
Loading
Personal Weather Stations






























Interactive Weather Map New forecast layout! Learn more

10-Day Weather Forecast

Advertisements
Track Severe Weather on mobile